createdAt,value
2018-11-03T00:01:34.395Z,8.07
2018-11-03T00:04:03.668Z,9.10
2018-11-03T00:06:33.852Z,13.20
2018-11-03T00:09:03.061Z,10.83
2018-11-03T00:11:32.222Z,9.03
2018-11-03T00:14:01.319Z,12.60
2018-11-03T00:21:32.118Z,11.40
2018-11-03T00:24:06.135Z,8.20
2018-11-03T00:26:35.455Z,9.40
2018-11-03T00:29:05.180Z,10.67
2018-11-03T00:31:34.612Z,13.23
2018-11-03T00:34:07.382Z,15.50
2018-11-03T00:36:36.544Z,19.57
2018-11-03T00:47:19.489Z,11.20
2018-11-03T00:49:48.549Z,11.40
2018-11-03T00:52:17.740Z,10.00
2018-11-03T00:57:32.983Z,8.30
2018-11-03T01:05:43.086Z,11.47
2018-11-03T01:08:12.181Z,13.53
2018-11-03T01:14:07.147Z,11.12
2018-11-03T01:16:37.667Z,9.60
2018-11-03T01:19:06.951Z,10.87
2018-11-03T01:21:36.017Z,15.67
2018-11-03T01:25:14.767Z,12.93
2018-11-03T01:27:45.049Z,12.97
2018-11-03T01:30:15.983Z,13.93
2018-11-03T01:32:45.209Z,17.10
2018-11-03T01:35:14.266Z,13.70
2018-11-03T01:37:48.291Z,14.03
2018-11-03T01:40:18.179Z,15.00
2018-11-03T01:42:47.403Z,16.10
2018-11-03T01:45:18.554Z,11.90
2018-11-03T01:47:47.699Z,12.67
2018-11-03T01:50:17.108Z,15.40
2018-11-03T01:52:46.467Z,14.63
2018-11-03T01:55:15.627Z,17.27
2018-11-03T01:57:44.723Z,15.73
2018-11-03T02:00:19.878Z,13.97
2018-11-03T02:10:49.423Z,16.33
2018-11-03T02:13:18.548Z,22.00
2018-11-03T02:15:47.567Z,14.90
2018-11-03T02:18:16.614Z,19.90
2018-11-03T02:20:45.729Z,19.23
2018-11-03T02:27:46.647Z,16.40
2018-11-03T02:30:24.236Z,15.43
2018-11-03T02:35:48.034Z,15.40
2018-11-03T02:38:17.088Z,19.73
2018-11-03T02:41:05.263Z,19.27
2018-11-03T02:46:40.701Z,13.20
2018-11-03T02:49:09.887Z,17.40
2018-11-03T02:52:02.488Z,20.30
2018-11-03T02:54:31.642Z,16.33
2018-11-03T02:57:00.801Z,16.33
2018-11-03T02:59:29.923Z,21.30
2018-11-03T03:01:59.133Z,14.50
2018-11-03T03:04:28.097Z,14.97
2018-11-03T03:07:58.123Z,17.80
2018-11-03T03:14:06.172Z,21.00
2018-11-03T03:16:35.412Z,19.40
2018-11-03T03:19:04.818Z,18.83
2018-11-03T03:21:46.640Z,14.27
2018-11-03T03:38:15.235Z,19.32
2018-11-03T03:41:07.648Z,17.40
2018-11-03T03:43:37.056Z,18.50
2018-11-03T03:46:06.246Z,18.17
2018-11-03T03:49:02.214Z,18.37
2018-11-03T03:51:37.613Z,22.37
2018-11-03T03:54:06.880Z,31.33
2018-11-03T03:56:35.982Z,22.60
2018-11-03T03:59:05.560Z,23.87
2018-11-03T04:01:34.822Z,26.33
2018-11-03T04:04:03.948Z,27.90
2018-11-03T04:06:33.448Z,34.17
2018-11-03T04:09:03.858Z,23.47
2018-11-03T04:11:33.880Z,23.43
2018-11-03T04:17:24.660Z,21.70
2018-11-03T04:19:53.826Z,14.73
2018-11-03T04:22:22.852Z,17.53
2018-11-03T04:25:20.121Z,14.97
2018-11-03T04:27:58.559Z,18.23
2018-11-03T04:30:49.868Z,18.40
2018-11-03T04:33:24.774Z,18.23
2018-11-03T04:35:54.011Z,13.97
2018-11-03T04:38:24.774Z,16.17
2018-11-03T04:40:54.032Z,17.50
2018-11-03T04:43:23.163Z,16.70
2018-11-03T04:45:54.375Z,17.23
2018-11-03T04:48:23.445Z,19.73
2018-11-03T04:50:52.563Z,23.20
2018-11-03T04:53:21.733Z,20.27
2018-11-03T04:55:51.876Z,16.70
2018-11-03T04:58:21.052Z,16.17
2018-11-03T05:00:51.319Z,22.00
2018-11-03T05:03:20.501Z,15.13
2018-11-03T05:05:49.657Z,22.50
2018-11-03T05:08:25.407Z,15.17
2018-11-03T05:10:54.485Z,15.67
2018-11-03T05:13:23.621Z,18.43
2018-11-03T05:15:52.927Z,19.30
2018-11-03T05:18:22.733Z,20.53
2018-11-03T05:20:51.846Z,19.43
2018-11-03T05:23:22.912Z,16.53
2018-11-03T05:25:52.973Z,16.50
2018-11-03T05:28:22.077Z,15.27
2018-11-03T05:30:52.050Z,24.83
2018-11-03T05:33:21.555Z,16.37
2018-11-03T05:35:50.742Z,20.17
2018-11-03T05:38:20.318Z,16.23
2018-11-03T05:40:49.360Z,20.73
2018-11-03T05:43:18.496Z,27.60
2018-11-03T05:45:48.007Z,20.90
2018-11-03T05:48:20.881Z,16.80
2018-11-03T05:50:50.114Z,20.57
2018-11-03T05:53:22.045Z,17.50
2018-11-03T05:55:58.297Z,20.13
2018-11-03T05:58:27.596Z,17.23
2018-11-03T06:00:57.347Z,20.13
2018-11-03T06:03:26.473Z,20.63
2018-11-03T06:05:56.573Z,18.83
2018-11-03T06:08:30.940Z,18.50
2018-11-03T06:11:00.179Z,17.30
2018-11-03T06:13:29.712Z,18.53
2018-11-03T06:15:59.467Z,25.87
2018-11-03T06:18:28.520Z,20.57
2018-11-03T06:20:57.651Z,21.00
2018-11-03T06:23:26.867Z,16.83
2018-11-03T06:25:55.856Z,24.17
2018-11-03T06:28:24.937Z,26.57
2018-11-03T06:30:54.110Z,23.33
2018-11-03T06:33:23.191Z,21.53
2018-11-03T06:35:52.268Z,25.50
2018-11-03T06:38:21.981Z,25.20
2018-11-03T06:40:51.217Z,23.87
2018-11-03T06:43:20.327Z,22.17
2018-11-03T06:45:49.448Z,27.23
2018-11-03T06:48:18.526Z,23.37
2018-11-03T06:50:47.617Z,25.07
2018-11-03T06:53:16.942Z,28.93
2018-11-03T06:55:46.281Z,22.93
2018-11-03T06:58:19.703Z,21.97
2018-11-03T07:01:04.793Z,33.27
2018-11-03T07:03:37.703Z,25.97
2018-11-03T07:06:06.999Z,25.30
2018-11-03T07:08:36.098Z,25.17
2018-11-03T07:11:05.597Z,22.73
2018-11-03T07:13:34.702Z,26.27
2018-11-03T07:16:03.928Z,22.60
2018-11-03T07:18:33.046Z,22.40
2018-11-03T07:21:02.086Z,26.83
2018-11-03T07:23:31.206Z,23.93
2018-11-03T07:26:00.272Z,27.37
2018-11-03T07:28:30.413Z,25.97
2018-11-03T07:31:08.583Z,26.40
2018-11-03T07:33:38.716Z,28.23
2018-11-03T07:36:08.699Z,26.93
2018-11-03T07:38:37.838Z,30.03
2018-11-03T07:41:07.093Z,27.90
2018-11-03T07:43:36.322Z,23.80
2018-11-03T07:46:12.551Z,34.33
2018-11-03T07:48:42.413Z,26.23
2018-11-03T07:51:11.615Z,33.00
2018-11-03T07:53:41.291Z,24.73
2018-11-03T07:56:17.039Z,26.50
2018-11-03T07:58:47.823Z,23.57
2018-11-03T08:01:18.307Z,24.57
2018-11-03T08:03:47.473Z,26.43
2018-11-03T08:07:05.300Z,35.80
2018-11-03T08:09:48.621Z,26.90
2018-11-03T08:12:18.632Z,27.27
2018-11-03T08:14:47.705Z,31.93
2018-11-03T08:17:50.701Z,35.80
2018-11-03T08:20:20.139Z,32.93
2018-11-03T08:22:49.340Z,36.53
2018-11-03T08:25:18.668Z,35.63
2018-11-03T08:27:47.768Z,33.43
2018-11-03T08:30:16.906Z,27.63
2018-11-03T08:32:57.297Z,25.63
2018-11-03T08:36:51.662Z,34.30
2018-11-03T08:39:20.899Z,31.90
2018-11-03T08:41:50.013Z,27.10
2018-11-03T08:44:23.294Z,35.20
2018-11-03T08:46:55.689Z,28.33
2018-11-03T08:49:25.917Z,27.10
2018-11-03T08:51:55.276Z,25.20
2018-11-03T08:57:28.585Z,26.90
2018-11-03T08:59:58.082Z,25.40
2018-11-03T09:02:27.424Z,24.60
2018-11-03T09:04:56.870Z,30.17
2018-11-03T09:07:26.832Z,24.67
2018-11-03T09:15:56.793Z,27.70
2018-11-03T09:18:26.082Z,24.10
2018-11-03T09:20:55.336Z,29.83
2018-11-03T09:23:24.442Z,24.40
2018-11-03T09:25:54.018Z,28.00
2018-11-03T09:28:23.047Z,24.77
2018-11-03T09:30:52.150Z,24.50
2018-11-03T09:33:52.938Z,29.87
2018-11-03T09:39:33.468Z,26.80
2018-11-03T09:42:02.640Z,27.57
2018-11-03T09:44:32.104Z,21.00
2018-11-03T09:47:01.287Z,25.87
2018-11-03T09:50:04.344Z,22.93
2018-11-03T09:53:39.158Z,24.70
2018-11-03T09:56:09.382Z,22.10
2018-11-03T09:58:39.683Z,22.33
2018-11-03T10:02:04.395Z,29.73
2018-11-03T10:04:33.630Z,22.20
2018-11-03T10:07:02.778Z,19.37
2018-11-03T10:09:32.065Z,17.63
2018-11-03T10:12:01.313Z,18.20
2018-11-03T10:14:31.024Z,20.60
2018-11-03T10:17:00.277Z,18.00
2018-11-03T10:19:29.573Z,21.63
2018-11-03T10:21:58.846Z,25.93
2018-11-03T10:27:30.753Z,19.77
2018-11-03T10:30:00.947Z,19.70
2018-11-03T10:32:30.187Z,20.13
2018-11-03T10:35:00.293Z,16.47
2018-11-03T10:37:29.345Z,18.57
2018-11-03T10:39:58.574Z,18.93
2018-11-03T10:42:48.875Z,16.80
2018-11-03T10:45:18.304Z,17.70
2018-11-03T10:47:47.574Z,16.30
2018-11-03T10:51:17.546Z,19.57
2018-11-03T10:54:16.167Z,21.43
2018-11-03T11:02:50.800Z,17.50
2018-11-03T11:05:25.378Z,16.47
2018-11-03T11:07:59.881Z,25.17
2018-11-03T11:10:52.162Z,14.23
2018-11-03T11:13:24.749Z,21.87
2018-11-03T11:18:57.090Z,18.43
2018-11-03T11:21:26.213Z,19.20
2018-11-03T11:27:22.199Z,20.03
2018-11-03T11:29:51.777Z,18.00
2018-11-03T11:32:22.081Z,15.93
2018-11-03T11:34:51.267Z,18.77
2018-11-03T11:37:20.602Z,15.43
2018-11-03T11:40:29.757Z,21.47
2018-11-03T11:48:39.185Z,13.43
2018-11-03T11:51:31.547Z,17.07
2018-11-03T11:54:00.711Z,14.47
2018-11-03T11:56:32.250Z,12.90
2018-11-03T11:59:01.456Z,13.73
2018-11-03T12:01:59.957Z,12.10
2018-11-03T12:04:29.279Z,13.40
2018-11-03T12:06:58.552Z,11.97
2018-11-03T12:09:56.397Z,9.47
2018-11-03T12:15:24.798Z,13.63
2018-11-03T12:17:53.932Z,12.17
2018-11-03T12:20:23.074Z,10.70
2018-11-03T12:23:34.972Z,11.90
2018-11-03T12:29:26.336Z,11.63
2018-11-03T12:35:01.237Z,11.53
2018-11-03T12:37:30.914Z,17.93
2018-11-03T12:40:00.142Z,11.70
2018-11-03T12:42:29.336Z,18.67
2018-11-03T12:44:58.504Z,16.77
2018-11-03T12:47:30.644Z,12.00
2018-11-03T12:53:18.338Z,14.87
2018-11-03T12:56:51.294Z,10.73
2018-11-03T13:04:17.345Z,9.87
2018-11-03T13:06:46.688Z,12.70
2018-11-03T14:25:43.058Z,7.45
2018-11-03T14:28:19.396Z,12.13
2018-11-03T14:30:49.359Z,11.17
2018-11-03T14:33:21.372Z,9.40
2018-11-03T14:35:50.853Z,8.80
2018-11-03T14:41:21.429Z,6.57
2018-11-03T14:43:51.191Z,6.83
2018-11-03T14:46:20.573Z,7.63
2018-11-03T14:48:49.693Z,7.40
2018-11-03T14:51:18.758Z,6.17
2018-11-03T14:53:53.145Z,5.80
2018-11-03T14:56:54.123Z,9.20
2018-11-03T14:59:23.244Z,8.00
2018-11-03T15:01:52.573Z,6.87
2018-11-03T15:04:53.886Z,7.23
2018-11-03T15:07:31.378Z,5.90
2018-11-03T15:10:24.900Z,5.73
2018-11-03T15:12:57.579Z,9.23
2018-11-03T15:15:57.483Z,8.50
2018-11-03T15:19:07.722Z,7.90
2018-11-03T15:21:57.340Z,11.90
2018-11-03T15:24:57.205Z,5.70
2018-11-03T15:31:17.677Z,7.50
2018-11-03T15:33:59.571Z,9.47
2018-11-03T15:36:57.816Z,9.63
2018-11-03T15:41:33.584Z,6.23
2018-11-03T15:44:02.987Z,9.07
2018-11-03T15:46:32.291Z,7.57
2018-11-03T15:49:02.585Z,15.80
2018-11-03T15:51:31.961Z,9.60
2018-11-03T15:57:33.681Z,6.42
2018-11-03T16:00:07.347Z,17.53
2018-11-03T16:02:37.117Z,16.70
2018-11-03T16:05:06.849Z,7.83
2018-11-03T16:07:35.993Z,7.20
2018-11-03T16:12:54.727Z,10.90
2018-11-03T16:15:23.996Z,11.60
2018-11-03T16:17:53.222Z,10.13
2018-11-03T16:20:23.255Z,8.20
2018-11-03T16:22:52.580Z,11.53
2018-11-03T16:25:21.873Z,13.93
2018-11-03T16:27:51.071Z,11.67
2018-11-03T16:30:38.717Z,14.80
2018-11-03T16:33:08.318Z,12.33
2018-11-03T16:35:39.232Z,10.07
2018-11-03T16:41:02.743Z,8.30
2018-11-03T16:43:32.079Z,13.43
2018-11-03T16:47:42.813Z,10.10
2018-11-03T16:50:13.736Z,8.80
2018-11-03T16:52:43.218Z,15.67
2018-11-03T16:58:17.495Z,11.90
2018-11-03T17:04:42.690Z,14.45
2018-11-03T17:07:12.006Z,17.97
2018-11-03T17:09:41.311Z,14.13
2018-11-03T17:12:10.437Z,12.97
2018-11-03T17:14:47.269Z,12.60
2018-11-03T17:17:31.051Z,12.30
2018-11-03T17:23:15.940Z,11.87
2018-11-03T17:25:47.558Z,12.47
2018-11-03T17:31:11.242Z,11.43
2018-11-03T17:33:40.367Z,9.60
2018-11-03T17:36:10.183Z,9.93
2018-11-03T17:39:59.057Z,11.37
2018-11-03T17:42:28.870Z,30.23
2018-11-03T17:44:58.115Z,15.53
2018-11-03T17:47:27.355Z,19.77
2018-11-03T17:49:56.580Z,17.83
2018-11-03T17:52:27.357Z,14.57
2018-11-03T17:54:56.628Z,18.30
2018-11-03T17:57:26.090Z,13.90
2018-11-03T17:59:55.419Z,13.03
2018-11-03T18:02:24.736Z,13.03
2018-11-03T18:04:54.148Z,16.87
2018-11-03T18:07:25.285Z,14.07
2018-11-03T18:13:08.329Z,12.00
2018-11-03T18:15:37.348Z,13.67
2018-11-03T18:18:08.074Z,16.00
2018-11-03T18:21:59.712Z,19.43
2018-11-03T18:24:30.158Z,13.00
2018-11-03T18:27:01.873Z,11.97
2018-11-03T18:29:31.169Z,22.63
2018-11-03T18:32:08.157Z,19.27
2018-11-03T18:34:37.488Z,13.83
2018-11-03T18:37:29.217Z,14.10
2018-11-03T18:40:00.357Z,17.70
2018-11-03T18:43:00.467Z,18.43
2018-11-03T18:48:46.324Z,19.80
2018-11-03T18:51:42.784Z,19.97
2018-11-03T18:54:33.400Z,20.47
2018-11-03T18:57:33.758Z,20.53
2018-11-03T19:00:03.270Z,17.10
2018-11-03T19:02:32.567Z,19.90
2018-11-03T19:08:13.661Z,20.72
2018-11-03T19:10:42.977Z,23.50
2018-11-03T19:13:12.228Z,20.00
2018-11-03T19:15:41.414Z,28.53
2018-11-03T19:42:10.976Z,20.70
2018-11-03T19:47:44.012Z,23.12
2018-11-03T19:50:16.624Z,26.23
2018-11-03T19:52:46.228Z,17.00
2018-11-03T19:55:40.401Z,19.57
2018-11-03T19:58:11.145Z,19.70
2018-11-03T20:00:40.577Z,21.17
2018-11-03T20:06:30.359Z,20.60
2018-11-03T20:09:10.359Z,21.03
2018-11-03T20:21:23.418Z,18.17
2018-11-03T20:24:05.750Z,15.37
2018-11-03T20:29:20.652Z,16.30
2018-11-03T20:31:49.905Z,19.17
2018-11-03T20:34:19.183Z,18.57
2018-11-03T20:36:48.460Z,18.07
2018-11-03T20:39:18.750Z,19.30
2018-11-03T20:43:52.167Z,18.90
2018-11-03T20:46:21.421Z,21.90
2018-11-03T20:48:50.767Z,17.57
2018-11-03T20:51:24.000Z,20.77
2018-11-03T20:57:06.899Z,21.87
2018-11-03T20:59:54.359Z,22.33
2018-11-03T21:02:23.936Z,30.70
2018-11-03T21:04:53.290Z,28.13
2018-11-03T21:07:22.531Z,34.03
2018-11-03T21:13:05.359Z,33.33
2018-11-03T21:15:35.168Z,32.23
2018-11-03T21:19:24.689Z,32.13
2018-11-03T21:22:23.309Z,29.20
2018-11-03T21:28:36.149Z,32.70
2018-11-03T21:31:05.884Z,24.23
2018-11-03T21:33:35.227Z,26.30
2018-11-03T21:36:04.555Z,21.13
2018-11-03T21:38:34.014Z,21.90
2018-11-03T21:41:03.310Z,27.93
2018-11-03T21:43:57.592Z,26.77
2018-11-03T21:52:38.156Z,27.23
2018-11-03T21:55:08.091Z,25.17
2018-11-03T22:01:32.216Z,26.87
2018-11-03T22:04:02.483Z,23.03
2018-11-03T22:06:32.193Z,23.27
2018-11-03T22:09:02.080Z,23.63
2018-11-03T22:11:34.819Z,19.20
2018-11-03T22:14:04.138Z,20.77
2018-11-03T22:16:33.466Z,21.60
2018-11-03T22:22:27.684Z,24.72
2018-11-03T22:24:56.833Z,29.33
2018-11-03T22:27:25.999Z,25.57
2018-11-03T22:29:55.972Z,21.60
2018-11-03T22:32:25.166Z,23.03
2018-11-03T22:34:54.306Z,20.63
2018-11-03T22:37:23.466Z,24.97
2018-11-03T22:40:08.312Z,27.97
2018-11-03T22:43:08.563Z,20.67
2018-11-03T22:45:39.021Z,25.93
2018-11-03T22:48:08.508Z,23.63
2018-11-03T22:50:37.833Z,25.40
2018-11-03T22:53:07.820Z,22.83
2018-11-03T22:56:12.316Z,22.07
2018-11-03T22:58:41.576Z,26.70
2018-11-03T23:01:10.977Z,23.23
2018-11-03T23:03:40.326Z,23.13
2018-11-03T23:06:09.621Z,27.47
2018-11-03T23:08:41.226Z,34.17
2018-11-03T23:11:10.482Z,31.07
2018-11-03T23:13:43.524Z,24.57
2018-11-03T23:16:12.726Z,26.67
2018-11-03T23:21:42.762Z,21.20
2018-11-03T23:24:11.934Z,21.27
2018-11-03T23:27:17.934Z,23.83
2018-11-03T23:29:47.107Z,27.57
2018-11-03T23:32:16.355Z,22.20
2018-11-03T23:35:39.090Z,24.20
2018-11-03T23:38:08.239Z,21.43
2018-11-03T23:40:37.413Z,22.63
2018-11-03T23:43:21.322Z,19.77
2018-11-03T23:45:50.580Z,22.80
2018-11-03T23:48:20.704Z,30.23
2018-11-03T23:50:49.796Z,25.87
